MacDill Air Force Base

Airport
ICAO code: 
KMCF
Summary
ICAO Region: 
NAM
Territory: 
Location: 
Tampa, Florida,
Coordinates: 
Aerial View: 
27° 50' 57.001" N, 82° 31' 16.986" W
Metar
Observation
KMCF 021356Z AUTO 01006KT 10SM CLR 18/06 A3015 RMK AO2 SLP212 T01790058 FZRANO $
Station
Macdill Air Force Base, Fl.
Date/Time
2021-12-02 13:56:00
Wind direction
10°
Wind speed
06 kts
Lowest cloud amount
n/a
Temperature
17.9°C
Dew point
5.8°C
Humidity
45%
Weather condition
n/a

Description

MacDill Air Force Base is a United States Air Force installation located approximately 6 km south-southwest of downtown Tampa, Florida.

Climatology

Humid “subtropical” climate (Köppen climate classification Cfa) - characterized by hot, humid summers and cool winters. Significant amounts of precipitation occur in all seasons in most areas.

Runways

Designator Length Width Surface Rops
4/22 3481 46 ASP Yes/Yes
Airport map: 
Aerial View: 

SKYbrary Partners:

Safety knowledge contributed by: